Time;durP1;ratioP1;P1;durP2;ratioP2;P2;SDS_P1;SDS_P2;PMS_P1;PMS_P2;Temp;Humidity;BMP_temperature;BMP_pressure;BME280_temperature;BME280_humidity;BME280_pressure;Samples;Min_cycle;Max_cycle;Signal;HPM_P1;HPM_P2
2022/10/13 00:05:50;;;;;;;45.08;25.08;;;;;;;2.59;92.88;99938.00;4156266;84;22089;-84
2022/10/13 00:11:51;;;;;;;44.40;23.47;;;;;;;2.49;92.90;99929.30;4147721;84;21424;-83
2022/10/13 00:17:52;;;;;;;49.13;24.80;;;;;;;2.39;93.12;99934.88;4147125;84;21039;-82
2022/10/13 00:23:55;;;;;;;40.90;21.90;;;;;;;2.28;93.49;99925.35;4156904;84;20971;-82
2022/10/13 00:29:56;;;;;;;44.85;23.92;;;;;;;2.36;93.95;99927.37;4148727;84;21612;-82
2022/10/13 00:35:58;;;;;;;44.20;21.80;;;;;;;2.32;93.82;99919.05;4084736;85;21548;-82
2022/10/13 00:41:59;;;;;;;38.75;20.88;;;;;;;2.36;94.06;99913.86;4092173;85;21017;-82
2022/10/13 00:48:01;;;;;;;39.40;21.48;;;;;;;2.31;94.18;99924.22;4093978;85;21406;-82
2022/10/13 00:54:06;;;;;;;38.38;21.68;;;;;;;2.39;94.45;99920.83;4068323;85;21642;-82
2022/10/13 01:00:10;;;;;;;37.88;21.68;;;;;;;2.29;93.87;99918.30;4082868;85;21142;-82
2022/10/13 01:06:13;;;;;;;39.23;22.32;;;;;;;2.25;94.15;99921.89;4086148;85;21519;-82
2022/10/13 01:12:31;;;;;;;32.60;18.60;;;;;;;2.16;94.00;99912.31;4066105;85;21775;-82
2022/10/13 01:18:50;;;;;;;40.90;20.45;;;;;;;2.15;94.36;99905.31;4090551;85;21131;-83
2022/10/13 01:25:18;;;;;;;38.02;21.75;;;;;;;2.14;94.48;99902.37;4069214;85;22059;-83
2022/10/13 01:31:45;;;;;;;37.30;19.57;;;;;;;2.05;94.10;99901.44;4088140;84;21056;-82
2022/10/13 01:38:00;;;;;;;35.00;19.37;;;;;;;1.98;94.61;99896.17;4120570;84;21059;-82
2022/10/13 01:44:19;;;;;;;41.77;19.80;;;;;;;2.20;95.70;99892.27;4119109;84;21094;-82
2022/10/13 01:50:24;;;;;;;38.55;20.30;;;;;;;2.14;95.08;99888.06;4117546;84;22006;-82
2022/10/13 01:56:25;;;;;;;40.63;22.15;;;;;;;2.03;94.45;99882.05;4124708;84;21996;-82
2022/10/13 02:03:10;;;;;;;40.58;21.55;;;;;;;2.03;95.31;99879.34;4119449;84;20953;-83
2022/10/13 02:09:30;;;;;;;32.95;19.42;;;;;;;2.06;95.41;99877.40;4126879;84;21089;-82
2022/10/13 02:15:39;;;;;;;37.20;20.35;;;;;;;2.13;95.88;99875.09;4097750;84;21653;-82
2022/10/13 02:21:43;;;;;;;35.13;21.48;;;;;;;2.01;95.27;99873.97;4118465;84;21090;-82
2022/10/13 02:27:44;;;;;;;50.67;25.23;;;;;;;2.00;96.17;99870.49;4115453;84;22278;-82
2022/10/13 02:33:46;;;;;;;52.85;26.57;;;;;;;2.15;96.82;99870.20;4095942;84;21762;-84
2022/10/13 02:39:48;;;;;;;39.63;21.90;;;;;;;2.12;96.42;99861.35;4083163;85;21072;-83
2022/10/13 02:45:51;;;;;;;47.08;23.77;;;;;;;2.05;95.54;99860.14;4086197;85;21683;-82
2022/10/13 02:51:52;;;;;;;38.02;19.12;;;;;;;1.88;95.59;99863.97;4078638;85;21073;-82
2022/10/13 02:58:12;;;;;;;43.30;22.27;;;;;;;1.91;95.69;99859.32;4087137;85;21530;-82
2022/10/13 03:04:19;;;;;;;42.03;21.62;;;;;;;1.79;95.43;99861.67;4063905;85;21130;-83
2022/10/13 03:10:21;;;;;;;43.75;23.80;;;;;;;1.70;95.88;99868.85;4079257;85;21112;-82
2022/10/13 03:16:24;;;;;;;47.13;25.00;;;;;;;1.66;95.78;99857.06;4084794;85;20988;-82
2022/10/13 03:22:25;;;;;;;44.03;23.92;;;;;;;1.54;95.88;99857.52;4092750;84;34694;-82
2022/10/13 03:28:28;;;;;;;45.73;22.30;;;;;;;1.56;96.08;99845.34;4124417;85;21008;-82
2022/10/13 03:34:30;;;;;;;43.65;24.32;;;;;;;1.43;95.86;99847.98;4121684;85;21025;-83
2022/10/13 03:40:35;;;;;;;46.13;24.80;;;;;;;1.42;96.18;99840.99;4144288;84;21025;-83
2022/10/13 03:46:37;;;;;;;41.73;22.00;;;;;;;1.53;97.36;99841.08;4131071;85;21060;-83
2022/10/13 03:52:38;;;;;;;50.83;26.62;;;;;;;1.71;97.47;99852.94;4141794;83;21093;-83
2022/10/13 03:58:41;;;;;;;47.73;25.25;;;;;;;1.79;97.36;99848.98;4127292;85;21331;-83
2022/10/13 04:04:43;;;;;;;40.80;21.15;;;;;;;1.70;96.32;99853.47;4125070;85;21037;-83
2022/10/13 04:10:44;;;;;;;45.52;25.20;;;;;;;1.61;96.95;99849.85;4115369;85;20984;-83
2022/10/13 04:16:46;;;;;;;51.18;23.90;;;;;;;1.58;96.33;99848.53;4113855;85;20973;-83
2022/10/13 04:22:48;;;;;;;59.77;25.57;;;;;;;1.52;96.53;99851.59;4122959;85;22103;-83
2022/10/13 04:28:51;;;;;;;52.58;26.87;;;;;;;1.41;96.68;99843.41;4138166;85;21693;-84
2022/10/13 04:34:53;;;;;;;51.98;26.62;;;;;;;1.36;97.10;99842.95;4147966;85;21030;-83
2022/10/13 04:40:54;;;;;;;54.53;24.67;;;;;;;1.53;97.83;99838.38;4151718;83;21058;-83
2022/10/13 04:46:56;;;;;;;60.45;26.93;;;;;;;1.75;97.91;99845.83;4150301;85;21622;-84
2022/10/13 04:52:58;;;;;;;55.75;26.57;;;;;;;1.56;97.00;99832.39;4155988;84;21033;-83
2022/10/13 04:59:00;;;;;;;58.63;27.55;;;;;;;1.49;97.24;99830.61;4146343;85;21082;-85
2022/10/13 05:05:02;;;;;;;52.62;26.17;;;;;;;1.49;97.89;99842.20;4149743;85;21114;-83
2022/10/13 05:11:04;;;;;;;60.75;27.55;;;;;;;1.66;98.45;99837.59;4143909;85;21463;-84
2022/10/13 05:17:05;;;;;;;56.20;28.15;;;;;;;1.68;98.41;99849.48;4133062;85;21511;-83
2022/10/13 05:23:07;;;;;;;47.83;26.82;;;;;;;1.82;98.42;99849.73;4140833;85;21043;-83
2022/10/13 05:29:10;;;;;;;77.55;33.50;;;;;;;1.84;98.31;99848.91;4129517;84;21141;-83
2022/10/13 05:35:15;;;;;;;59.83;27.90;;;;;;;1.90;98.89;99839.61;4121398;85;23131;-84
2022/10/13 05:41:17;;;;;;;53.58;29.72;;;;;;;1.90;98.12;99842.84;4118783;85;21591;-83
2022/10/13 05:47:19;;;;;;;59.05;30.90;;;;;;;1.87;98.58;99851.00;4141689;85;22335;-82
2022/10/13 05:53:23;;;;;;;73.00;28.52;;;;;;;1.79;98.57;99842.23;4131343;85;21035;-83
2022/10/13 05:59:26;;;;;;;44.77;28.35;;;;;;;1.87;99.13;99842.91;4005040;86;21175;-83
2022/10/13 06:05:28;;;;;;;54.08;29.63;;;;;;;1.94;99.36;99848.73;4118301;85;21525;-83
2022/10/13 06:11:30;;;;;;;48.90;27.25;;;;;;;2.00;99.41;99847.54;4115972;84;21235;-83
2022/10/13 06:17:37;;;;;;;46.60;25.65;;;;;;;2.02;99.61;99843.97;4128892;85;21019;-82
2022/10/13 06:23:39;;;;;;;62.98;29.00;;;;;;;2.03;99.16;99850.18;4119219;85;21040;-83
2022/10/13 06:29:40;;;;;;;70.35;30.10;;;;;;;2.01;99.92;99857.23;4118913;85;20986;-83
2022/10/13 06:35:42;;;;;;;46.85;26.62;;;;;;;2.21;100.00;99858.77;4023823;85;21024;-82
2022/10/13 06:41:45;;;;;;;53.15;30.10;;;;;;;2.31;100.00;99857.20;3930206;89;21529;-82
2022/10/13 06:47:46;;;;;;;47.80;29.35;;;;;;;2.45;100.00;99857.47;3990805;87;21021;-83
2022/10/13 06:53:48;;;;;;;55.63;31.42;;;;;;;2.55;100.00;99859.17;3992629;87;21066;-82
2022/10/13 06:59:51;;;;;;;52.38;31.75;;;;;;;2.76;100.00;99850.33;4002953;86;21048;-82
2022/10/13 07:05:53;;;;;;;52.43;28.87;;;;;;;2.90;100.00;99844.34;3999914;87;21055;-82
2022/10/13 07:11:54;;;;;;;53.50;31.82;;;;;;;3.11;100.00;99843.34;4017255;87;21064;-82
2022/10/13 07:17:56;;;;;;;42.90;26.68;;;;;;;3.36;100.00;99850.06;4073800;87;21053;-82
2022/10/13 07:23:57;;;;;;;54.90;28.45;;;;;;;3.55;100.00;99845.27;4040689;87;21028;-82
2022/10/13 07:30:00;;;;;;;45.25;29.30;;;;;;;3.61;100.00;99846.19;3972249;89;21012;-82
2022/10/13 07:36:02;;;;;;;55.88;31.00;;;;;;;3.86;100.00;99840.68;3999838;88;21132;-83
2022/10/13 07:42:03;;;;;;;60.25;33.40;;;;;;;4.04;100.00;99830.97;3955173;87;21043;-82
2022/10/13 07:48:05;;;;;;;62.10;32.53;;;;;;;4.27;100.00;99823.59;4133776;85;20999;-83
2022/10/13 07:54:07;;;;;;;54.03;32.42;;;;;;;4.58;100.00;99823.78;4114534;85;21468;-83
2022/10/13 08:00:11;;;;;;;57.75;33.33;;;;;;;4.90;100.00;99819.05;4113078;85;21051;-85
2022/10/13 08:06:16;;;;;;;56.23;32.63;;;;;;;5.27;100.00;99816.51;4124916;85;20996;-86
2022/10/13 08:12:17;;;;;;;52.05;32.93;;;;;;;5.58;100.00;99799.45;4125300;85;20992;-82
2022/10/13 08:18:18;;;;;;;48.40;29.95;;;;;;;5.92;100.00;99799.39;4125610;85;20969;-83
2022/10/13 08:24:23;;;;;;;57.80;31.93;;;;;;;6.58;100.00;99791.02;4136903;83;21926;-83
2022/10/13 08:30:26;;;;;;;49.05;28.50;;;;;;;7.29;100.00;99792.58;4117548;83;21042;-82
2022/10/13 08:36:27;;;;;;;46.50;29.20;;;;;;;8.43;100.00;99781.14;4067481;85;21595;-82
2022/10/13 08:42:28;;;;;;;43.75;25.35;;;;;;;9.64;100.00;99778.09;4064236;86;21070;-83
2022/10/13 08:48:35;;;;;;;36.88;25.70;;;;;;;10.81;100.00;99774.61;4062325;85;21062;-83
2022/10/13 08:54:37;;;;;;;40.33;25.33;;;;;;;11.59;99.33;99768.02;4017889;86;21066;-84
2022/10/13 09:00:38;;;;;;;39.20;22.10;;;;;;;12.46;98.37;99755.87;4045422;86;21087;-84
2022/10/13 09:06:45;;;;;;;33.95;21.05;;;;;;;13.18;97.38;99742.77;3963977;88;21621;-85
2022/10/13 09:12:46;;;;;;;30.45;19.80;;;;;;;14.14;96.50;99738.48;4053263;86;21039;-84
2022/10/13 09:18:47;;;;;;;29.65;19.82;;;;;;;14.94;94.68;99734.74;4047225;86;21688;-84
2022/10/13 09:25:18;;;;;;;31.62;18.02;;;;;;;15.63;93.96;99727.92;4038829;85;21076;-84
2022/10/13 09:31:29;;;;;;;23.70;16.17;;;;;;;16.42;91.89;99725.64;4051932;86;21035;-85
2022/10/13 09:37:30;;;;;;;20.85;14.63;;;;;;;17.02;90.32;99727.70;4019789;86;21743;-85
2022/10/13 09:43:44;;;;;;;25.50;16.05;;;;;;;17.38;87.92;99722.05;4000721;86;21090;-85
2022/10/13 09:50:09;;;;;;;22.13;15.55;;;;;;;17.73;87.38;99720.51;4065643;87;21051;-85
2022/10/13 09:56:50;;;;;;;23.30;14.38;;;;;;;18.15;84.73;99718.20;4061353;87;20992;-85
2022/10/13 10:03:31;;;;;;;21.12;13.88;;;;;;;18.58;83.91;99703.41;4009934;87;21055;-85
2022/10/13 10:09:46;;;;;;;22.20;13.95;;;;;;;18.81;82.04;99698.01;4001885;87;21107;-85
2022/10/13 10:16:15;;;;;;;24.18;15.15;;;;;;;19.10;81.30;99691.53;4008459;86;21064;-85
2022/10/13 10:22:45;;;;;;;23.42;13.83;;;;;;;19.41;80.08;99680.06;4001064;87;21089;-85
2022/10/13 10:36:32;;;;;;;19.73;14.17;;;;;;;19.87;77.23;99675.23;4066412;85;21591;-85
2022/10/13 10:43:11;;;;;;;20.68;13.18;;;;;;;19.44;75.76;99668.12;4104555;85;20981;-85
2022/10/13 10:49:28;;;;;;;20.23;13.08;;;;;;;18.78;75.45;99656.46;4121741;85;21046;-84
2022/10/13 10:56:03;;;;;;;21.02;13.53;;;;;;;18.42;74.58;99645.74;4117238;85;21009;-85
2022/10/13 11:02:51;;;;;;;23.07;13.00;;;;;;;18.45;74.40;99643.53;4123025;85;21017;-84
2022/10/13 11:09:00;;;;;;;;;;;;;;;18.49;73.31;99636.57;4124189;85;21095;-85
2022/10/13 11:15:58;;;;;;;19.17;13.62;;;;;;;18.40;72.12;99628.73;4162367;85;20111;-84
2022/10/13 11:22:23;;;;;;;20.62;13.45;;;;;;;18.32;72.07;99625.04;4145879;85;21031;-85
2022/10/13 11:28:48;;;;;;;19.23;13.20;;;;;;;18.14;71.86;99616.09;4123777;85;21015;-84
2022/10/13 11:35:13;;;;;;;19.32;13.28;;;;;;;17.94;71.15;99599.27;4139123;85;21019;-85
2022/10/13 11:41:21;;;;;;;19.32;13.03;;;;;;;17.61;70.90;99593.02;4126833;85;21042;-84
2022/10/13 11:48:18;;;;;;;18.45;12.07;;;;;;;17.37;70.60;99582.87;4136630;85;21007;-85
2022/10/13 11:54:43;;;;;;;15.13;10.50;;;;;;;17.21;70.46;99581.99;4121531;85;21769;-84
2022/10/13 12:01:06;;;;;;;18.05;10.53;;;;;;;17.00;69.91;99578.56;4131798;85;21164;-85
2022/10/13 12:07:13;;;;;;;19.23;11.88;;;;;;;16.83;69.65;99569.77;4024539;86;21926;-85
2022/10/13 12:13:26;;;;;;;19.32;11.35;;;;;;;16.69;69.45;99567.08;4122988;83;21028;-86
2022/10/13 12:19:31;;;;;;;20.60;11.83;;;;;;;16.55;69.21;99554.08;4123012;85;21008;-84
2022/10/13 12:25:32;;;;;;;20.40;12.90;;;;;;;16.50;69.49;99555.11;4108189;85;21099;-84
2022/10/13 12:31:47;;;;;;;21.35;11.38;;;;;;;16.42;69.26;99552.94;4127917;85;21142;-85
2022/10/13 12:37:50;;;;;;;17.50;9.50;;;;;;;16.39;69.28;99545.45;4015943;86;22073;-85
2022/10/13 12:43:52;;;;;;;39.05;29.98;;;;;;;16.48;68.75;99538.13;3993816;87;21572;-84
2022/10/13 12:50:20;;;;;;;127.20;114.57;;;;;;;16.47;68.99;99534.60;4125369;85;21530;-84
2022/10/13 12:56:30;;;;;;;35.23;23.45;;;;;;;16.48;68.79;99531.22;4110409;85;21083;-84
2022/10/13 13:02:32;;;;;;;14.65;8.83;;;;;;;16.47;68.58;99524.12;4124977;85;21497;-85
2022/10/13 13:08:34;;;;;;;14.33;7.90;;;;;;;16.41;68.16;99522.95;4125048;83;21122;-84
2022/10/13 13:14:43;;;;;;;316.12;279.45;;;;;;;16.35;67.98;99525.94;4109708;83;21047;-84
2022/10/13 13:20:45;;;;;;;25.15;16.40;;;;;;;16.29;68.05;99522.78;4122373;85;21719;-84
2022/10/13 13:26:46;;;;;;;14.07;8.90;;;;;;;16.29;67.74;99508.17;4126363;84;21060;-84
2022/10/13 13:33:32;;;;;;;13.00;6.90;;;;;;;16.23;67.58;99509.19;4139173;85;20976;-85
2022/10/13 13:39:34;;;;;;;11.22;6.47;;;;;;;16.12;67.46;99509.81;4196389;85;21496;-84
2022/10/13 13:45:35;;;;;;;19.20;6.22;;;;;;;16.08;67.42;99503.53;4119429;85;21019;-85
2022/10/13 13:51:38;;;;;;;9.80;5.35;;;;;;;16.01;67.24;99508.26;4127091;85;21130;-84
2022/10/13 13:57:42;;;;;;;13.93;6.90;;;;;;;16.00;67.26;99508.88;4115681;85;21158;-85
2022/10/13 14:03:44;;;;;;;11.10;6.22;;;;;;;15.97;67.20;99512.44;4146111;85;21027;-84
2022/10/13 14:09:48;;;;;;;18.50;10.48;;;;;;;15.90;67.16;99499.21;4131358;85;21019;-84
2022/10/13 14:15:58;;;;;;;12.88;6.12;;;;;;;15.85;67.61;99495.50;4138527;85;21574;-84
2022/10/13 14:22:00;;;;;;;17.25;8.38;;;;;;;15.77;67.83;99493.94;4124110;85;21567;-83
2022/10/13 14:28:01;;;;;;;13.00;7.10;;;;;;;15.64;68.21;99497.70;4142843;85;21507;-83
2022/10/13 14:34:03;;;;;;;25.20;7.58;;;;;;;15.51;68.22;99495.14;4097715;85;21071;-83
2022/10/13 14:40:07;;;;;;;9.80;5.00;;;;;;;15.34;68.45;99491.19;4023976;86;21019;-85
2022/10/13 14:46:09;;;;;;;12.85;6.12;;;;;;;15.20;68.32;99493.95;4032313;86;22068;-84
2022/10/13 14:52:12;;;;;;;21.52;7.87;;;;;;;15.08;68.80;99499.83;4033140;86;21027;-84
2022/10/13 14:58:13;;;;;;;12.03;5.03;;;;;;;14.98;69.00;99492.34;4037589;86;21050;-84
2022/10/13 15:04:15;;;;;;;16.75;7.72;;;;;;;14.80;69.05;99482.48;4027472;86;21106;-84
2022/10/13 15:10:16;;;;;;;166.37;62.23;;;;;;;14.69;69.81;99492.08;4021164;86;21788;-83
2022/10/13 15:16:26;;;;;;;144.53;58.70;;;;;;;14.57;70.39;99486.14;4030955;86;21031;-83
2022/10/13 15:22:28;;;;;;;28.67;13.83;;;;;;;14.30;70.94;99486.27;4023363;86;21078;-83
2022/10/13 15:28:37;;;;;;;51.33;24.45;;;;;;;14.09;71.55;99486.32;4020937;86;21917;-83
2022/10/13 15:34:39;;;;;;;24.67;11.97;;;;;;;14.00;72.34;99478.23;4031663;85;21088;-83
2022/10/13 15:40:42;;;;;;;20.75;7.45;;;;;;;13.91;72.70;99479.15;4048491;87;21000;-83
2022/10/13 15:46:43;;;;;;;26.82;12.23;;;;;;;13.75;72.87;99483.59;3991447;87;21485;-83
2022/10/13 15:52:44;;;;;;;14.38;7.58;;;;;;;13.66;73.97;99480.97;3991667;87;21036;-83
2022/10/13 15:58:46;;;;;;;15.83;8.35;;;;;;;13.54;74.53;99478.53;4034316;86;21007;-83
2022/10/13 16:04:47;;;;;;;18.77;9.05;;;;;;;13.39;74.68;99471.38;3899039;89;21498;-83
2022/10/13 16:10:49;;;;;;;25.82;12.78;;;;;;;13.19;75.44;99470.81;3996092;87;21024;-83
2022/10/13 16:16:50;;;;;;;16.95;8.53;;;;;;;13.04;75.98;99476.00;3960029;89;21052;-83
2022/10/13 16:22:53;;;;;;;29.10;15.40;;;;;;;12.85;76.20;99474.00;4002982;87;21618;-83
2022/10/13 16:28:55;;;;;;;515.52;278.80;;;;;;;12.61;76.39;99469.27;4010668;87;21097;-85
2022/10/13 16:34:57;;;;;;;318.85;160.60;;;;;;;12.33;76.94;99470.91;3951194;85;21082;-83
2022/10/13 16:41:06;;;;;;;137.97;65.50;;;;;;;12.11;77.71;99469.86;4002134;87;21620;-83
2022/10/13 16:47:07;;;;;;;59.45;26.07;;;;;;;11.85;78.04;99466.39;3995780;87;21056;-83
2022/10/13 16:53:10;;;;;;;39.78;20.97;;;;;;;11.52;78.55;99464.33;4036605;88;21108;-84
2022/10/13 16:59:11;;;;;;;143.05;67.87;;;;;;;11.29;79.47;99462.20;4010854;87;21596;-83
2022/10/13 17:05:13;;;;;;;49.63;24.05;;;;;;;11.17;80.06;99476.67;4006284;87;21157;-82
2022/10/13 17:11:18;;;;;;;33.83;19.73;;;;;;;11.03;80.39;99478.61;4017306;86;21012;-83
2022/10/13 17:17:20;;;;;;;33.70;19.90;;;;;;;10.81;80.89;99477.46;3900002;88;21110;-83
2022/10/13 17:23:22;;;;;;;41.53;23.45;;;;;;;10.60;81.34;99473.56;3932199;88;21224;-83
2022/10/13 17:29:23;;;;;;;49.13;28.73;;;;;;;10.44;81.95;99476.96;4000799;86;21596;-84
2022/10/13 17:35:27;;;;;;;46.48;28.80;;;;;;;10.30;82.31;99473.38;4048501;85;21147;-83
2022/10/13 17:41:28;;;;;;;51.60;30.68;;;;;;;10.14;82.62;99478.70;4087982;85;21075;-83
2022/10/13 17:47:30;;;;;;;50.15;27.10;;;;;;;9.98;83.36;99471.09;4107960;85;20999;-83
2022/10/13 17:53:31;;;;;;;40.98;23.83;;;;;;;9.81;83.45;99468.22;4002641;83;10000064;-83
2022/10/13 17:59:32;;;;;;;40.33;22.22;;;;;;;9.74;84.22;99474.11;4104903;85;21018;-83
2022/10/13 18:05:34;;;;;;;45.98;24.63;;;;;;;9.68;84.62;99464.02;4163910;85;20992;-83
2022/10/13 18:11:38;;;;;;;65.78;30.40;;;;;;;9.56;85.08;99461.41;4135852;85;21689;-83
2022/10/13 18:17:39;;;;;;;38.78;23.83;;;;;;;9.50;85.64;99464.21;4108493;85;21090;-83
2022/10/13 18:23:41;;;;;;;40.55;23.90;;;;;;;9.46;85.65;99461.95;4133763;83;21019;-83
2022/10/13 18:29:42;;;;;;;55.65;30.05;;;;;;;9.30;86.56;99461.22;4125370;85;21544;-85
2022/10/13 18:35:44;;;;;;;59.50;32.63;;;;;;;9.13;86.54;99446.57;4140087;84;21463;-82
2022/10/13 18:41:46;;;;;;;59.63;35.88;;;;;;;9.12;87.08;99453.96;4144184;84;21023;-85
2022/10/13 18:47:50;;;;;;;58.52;33.28;;;;;;;9.03;87.17;99453.92;4140900;84;22039;-82
2022/10/13 18:53:52;;;;;;;57.10;29.95;;;;;;;8.97;87.92;99456.11;4024168;86;21038;-83
2022/10/13 18:59:55;;;;;;;54.18;30.72;;;;;;;8.80;87.87;99465.25;4047457;86;21031;-82
2022/10/13 19:06:01;;;;;;;61.98;35.13;;;;;;;8.73;88.12;99452.77;3973984;87;21132;-84
2022/10/13 19:12:03;;;;;;;63.02;37.00;;;;;;;8.63;88.12;99459.53;4127018;84;21003;-82
2022/10/13 19:18:05;;;;;;;65.75;37.33;;;;;;;8.48;88.40;99454.06;4138936;84;21867;-82
2022/10/13 19:24:08;;;;;;;78.92;45.08;;;;;;;8.35;88.48;99449.23;4061756;86;21584;-83
2022/10/13 19:30:10;;;;;;;62.23;36.70;;;;;;;8.19;88.83;99445.64;4173662;84;21019;-83
2022/10/13 19:36:26;;;;;;;71.80;40.80;;;;;;;8.09;89.04;99454.34;4189708;84;21071;-83
2022/10/13 19:42:29;;;;;;;69.07;40.75;;;;;;;7.94;88.99;99448.25;4099846;85;21063;-82
2022/10/13 19:48:30;;;;;;;60.25;35.90;;;;;;;7.80;89.48;99454.09;4102489;85;21028;-83
2022/10/13 19:54:34;;;;;;;59.45;32.75;;;;;;;7.71;89.57;99451.28;3991550;85;10000436;-83
2022/10/13 20:00:36;;;;;;;54.95;31.82;;;;;;;7.57;89.57;99453.59;4123716;83;21658;-83
2022/10/13 20:06:37;;;;;;;86.77;43.47;;;;;;;7.46;89.90;99451.11;4143466;85;21578;-83
2022/10/13 20:12:39;;;;;;;58.70;35.43;;;;;;;7.29;89.83;99450.80;4120867;85;21060;-83
2022/10/13 20:18:41;;;;;;;59.77;35.08;;;;;;;7.20;90.79;99452.86;4199270;85;21056;-83
2022/10/13 20:24:43;;;;;;;56.02;32.88;;;;;;;7.18;90.78;99444.23;4124369;85;21680;-83
2022/10/13 20:30:45;;;;;;;61.80;36.23;;;;;;;7.11;91.33;99442.63;4112694;85;21028;-82
2022/10/13 20:36:49;;;;;;;63.48;37.48;;;;;;;7.02;90.94;99441.16;4119714;85;21012;-82
2022/10/13 20:42:52;;;;;;;54.50;32.85;;;;;;;6.94;91.12;99432.56;4020090;86;21028;-82
2022/10/13 20:48:55;;;;;;;61.75;34.30;;;;;;;6.88;91.63;99438.78;4048164;86;21026;-81
2022/10/13 20:54:56;;;;;;;62.40;37.67;;;;;;;6.87;91.83;99437.20;4118664;83;21077;-82
2022/10/13 21:00:58;;;;;;;63.78;38.90;;;;;;;6.85;91.70;99438.10;4013797;86;21035;-83
2022/10/13 21:06:59;;;;;;;66.70;37.75;;;;;;;6.71;91.70;99436.28;4113407;85;21078;-83
2022/10/13 21:13:01;;;;;;;52.05;31.15;;;;;;;6.59;91.89;99436.83;4122076;83;21031;-83
2022/10/13 21:19:06;;;;;;;58.08;33.85;;;;;;;6.51;92.62;99429.55;4004324;86;21028;-82
2022/10/13 21:25:08;;;;;;;66.10;37.25;;;;;;;6.44;92.01;99436.91;4126615;85;21114;-84
2022/10/13 21:31:13;;;;;;;60.20;36.30;;;;;;;6.35;92.29;99432.94;4116448;85;21043;-83
2022/10/13 21:37:18;;;;;;;59.18;34.73;;;;;;;6.24;92.96;99426.89;4172188;85;21070;-82
2022/10/13 21:43:19;;;;;;;65.65;37.10;;;;;;;6.20;92.73;99432.20;4134982;85;21630;-82
2022/10/13 21:49:20;;;;;;;73.20;42.33;;;;;;;6.06;92.77;99428.98;4011886;86;21128;-83
2022/10/13 21:55:22;;;;;;;63.78;36.63;;;;;;;6.10;94.01;99422.31;4048120;85;21496;-82
2022/10/13 22:01:25;;;;;;;62.93;37.93;;;;;;;6.20;94.49;99426.75;4055033;86;21029;-82
2022/10/13 22:07:27;;;;;;;67.97;39.78;;;;;;;6.35;94.93;99428.05;4053935;85;21108;-83
2022/10/13 22:13:29;;;;;;;66.28;38.28;;;;;;;6.44;95.23;99426.03;4126749;85;21650;-82
2022/10/13 22:19:30;;;;;;;64.85;37.88;;;;;;;6.60;95.96;99429.69;4122356;85;21051;-82
2022/10/13 22:25:31;;;;;;;73.78;42.50;;;;;;;6.72;95.94;99431.64;4018608;86;21164;-82
2022/10/13 22:31:34;;;;;;;68.90;39.05;;;;;;;6.79;96.12;99432.66;4113232;85;21044;-83
2022/10/13 22:37:38;;;;;;;68.70;40.00;;;;;;;6.93;96.79;99430.39;4013842;86;21039;-82
2022/10/13 22:43:43;;;;;;;77.40;42.58;;;;;;;6.98;96.41;99427.45;4117917;85;21424;-82
2022/10/13 22:49:48;;;;;;;79.87;41.28;;;;;;;7.06;97.00;99427.11;4127090;85;22057;-83
2022/10/13 22:55:51;;;;;;;74.80;42.85;;;;;;;7.09;97.13;99423.14;4126512;85;21035;-82
2022/10/13 23:01:52;;;;;;;74.92;40.85;;;;;;;7.17;97.50;99429.59;4119267;85;21998;-83
2022/10/13 23:07:54;;;;;;;66.40;41.90;;;;;;;7.18;97.72;99429.25;4130446;85;21034;-82
2022/10/13 23:13:56;;;;;;;72.03;39.50;;;;;;;7.16;97.42;99417.91;4130037;85;21127;-82
2022/10/13 23:19:59;;;;;;;76.17;41.37;;;;;;;7.04;97.41;99411.67;4130540;85;20972;-82
2022/10/13 23:26:07;;;;;;;74.03;42.00;;;;;;;7.01;97.88;99405.00;4129478;85;21008;-83
2022/10/13 23:32:08;;;;;;;76.05;43.40;;;;;;;6.96;98.03;99397.05;4196742;85;21016;-82
2022/10/13 23:38:10;;;;;;;77.70;44.10;;;;;;;6.98;98.00;99389.34;4100922;85;21033;-83
2022/10/13 23:44:11;;;;;;;65.62;42.05;;;;;;;6.97;98.31;99383.66;3995745;87;21108;-82
2022/10/13 23:50:13;;;;;;;73.00;42.95;;;;;;;7.00;98.76;99387.05;4012291;87;22065;-82
2022/10/13 23:56:15;;;;;;;70.55;42.08;;;;;;;6.95;98.80;99390.59;4013354;86;21088;-83
